Time;durP1;ratioP1;P1;durP2;ratioP2;P2;SDS_P1;SDS_P2;PMS_P1;PMS_P2;Temp;Humidity;BMP_temperature;BMP_pressure;BME280_temperature;BME280_humidity;BME280_pressure;Samples;Min_cycle;Max_cycle;Signal;HPM_P1;HPM_P2
2023/06/19 00:01:44;;;;;;;7.78;5.55;;;22.60;68.60;;;;;;5100688;28;20470;-75
2023/06/19 00:04:10;;;;;;;7.15;5.95;;;22.60;68.30;;;;;;5135755;28;20022;-75
2023/06/19 00:06:36;;;;;;;11.48;6.32;;;22.70;69.00;;;;;;5135694;28;20039;-75
2023/06/19 00:09:02;;;;;;;8.52;6.25;;;22.70;68.80;;;;;;5117676;28;20024;-75
2023/06/19 00:11:28;;;;;;;9.32;6.40;;;22.80;69.00;;;;;;5100722;28;20031;-75
2023/06/19 00:13:53;;;;;;;9.52;6.00;;;22.80;68.90;;;;;;5083976;28;20034;-75
2023/06/19 00:16:19;;;;;;;10.70;6.20;;;22.80;68.70;;;;;;5100469;28;20042;-75
2023/06/19 00:18:45;;;;;;;7.22;5.50;;;22.70;68.90;;;;;;5135424;28;20047;-75
2023/06/19 00:21:11;;;;;;;9.13;6.13;;;22.80;69.10;;;;;;5117300;28;20028;-75
2023/06/19 00:23:37;;;;;;;9.70;6.47;;;22.80;69.20;;;;;;5117329;28;20019;-75
2023/06/19 00:26:03;;;;;;;7.88;5.60;;;22.80;69.10;;;;;;5135267;28;20037;-75
2023/06/19 00:28:30;;;;;;;7.68;6.03;;;22.80;69.00;;;;;;5135272;28;20011;-75
2023/06/19 00:30:55;;;;;;;6.72;5.70;;;22.80;69.00;;;;;;5100384;28;20035;-75
2023/06/19 00:33:21;;;;;;;7.82;5.80;;;22.90;70.00;;;;;;5117082;28;20036;-75
2023/06/19 00:35:50;;;;;;;8.20;6.13;;;22.90;69.10;;;;;;5135143;28;20031;-75
2023/06/19 00:38:16;;;;;;;7.03;5.63;;;22.90;69.10;;;;;;5117028;28;20028;-75
2023/06/19 00:40:41;;;;;;;7.50;5.32;;;22.80;69.00;;;;;;5134943;28;20036;-75
2023/06/19 00:43:07;;;;;;;7.95;5.80;;;22.80;69.00;;;;;;5117053;28;20028;-75
2023/06/19 00:45:33;;;;;;;9.38;5.55;;;22.90;69.10;;;;;;5134607;28;20052;-75
2023/06/19 00:48:00;;;;;;;12.25;5.60;;;22.90;69.10;;;;;;5134901;28;20024;-75
2023/06/19 00:50:28;;;;;;;7.07;5.07;;;22.90;68.70;;;;;;5116842;28;20027;-75
2023/06/19 00:52:54;;;;;;;7.00;5.68;;;22.90;68.60;;;;;;5134728;28;20026;-75
2023/06/19 00:55:21;;;;;;;8.85;5.65;;;22.90;68.20;;;;;;5116567;28;20047;-75
2023/06/19 00:57:49;;;;;;;9.40;6.03;;;23.00;68.10;;;;;;5134632;28;20031;-75
2023/06/19 01:00:15;;;;;;;7.25;5.00;;;23.00;68.00;;;;;;5134457;28;20031;-75
2023/06/19 01:02:40;;;;;;;7.00;5.30;;;22.90;67.80;;;;;;5116689;28;20032;-75
2023/06/19 01:05:06;;;;;;;8.90;5.45;;;22.90;67.70;;;;;;5116572;28;20023;-75
2023/06/19 01:07:53;;;;;;;7.35;4.82;;;22.90;67.10;;;;;;5116548;28;20023;-75
2023/06/19 01:10:24;;;;;;;7.65;5.38;;;22.80;67.40;;;;;;5134546;28;20049;-75
2023/06/19 01:12:59;;;;;;;7.15;4.82;;;22.90;67.50;;;;;;5134437;28;20027;-75
2023/06/19 01:15:25;;;;;;;6.05;4.40;;;22.80;67.10;;;;;;5116178;28;20447;-75
2023/06/19 01:17:53;;;;;;;7.25;5.00;;;22.80;67.20;;;;;;5116289;28;20031;-75
2023/06/19 01:20:19;;;;;;;7.22;5.10;;;22.80;67.30;;;;;;5116245;28;20031;-75
2023/06/19 01:22:45;;;;;;;8.77;4.95;;;22.80;67.20;;;;;;5116314;28;20023;-75
2023/06/19 01:25:13;;;;;;;6.75;5.03;;;22.80;67.20;;;;;;5134257;28;20473;-75
2023/06/19 01:27:40;;;;;;;6.25;4.75;;;22.70;66.90;;;;;;5099779;28;20539;-75
2023/06/19 01:30:06;;;;;;;6.75;4.13;;;22.70;67.00;;;;;;5134167;28;20023;-75
2023/06/19 01:32:42;;;;;;;5.32;4.10;;;22.60;66.80;;;;;;5134112;28;20378;-76
2023/06/19 01:35:10;;;;;;;6.05;4.30;;;22.60;67.10;;;;;;5134071;28;20030;-76
2023/06/19 01:37:38;;;;;;;6.25;4.38;;;22.50;67.30;;;;;;5134021;28;20031;-76
2023/06/19 01:40:09;;;;;;;6.55;4.28;;;22.40;67.40;;;;;;5116375;28;20023;-76
2023/06/19 01:42:37;;;;;;;5.30;3.97;;;22.40;67.40;;;;;;5134154;28;20020;-76
2023/06/19 01:45:04;;;;;;;7.28;4.20;;;22.50;67.50;;;;;;5115775;28;20020;-76
2023/06/19 01:47:30;;;;;;;6.00;3.30;;;22.40;67.80;;;;;;5115723;28;20549;-76
2023/06/19 01:49:55;;;;;;;6.22;3.20;;;22.30;68.50;;;;;;5099355;28;20024;-76
2023/06/19 01:52:21;;;;;;;4.78;3.40;;;22.20;68.80;;;;;;5116015;28;20115;-76
2023/06/19 01:54:46;;;;;;;5.35;3.22;;;22.20;69.40;;;;;;5116046;28;20026;-76
2023/06/19 01:57:13;;;;;;;5.28;3.25;;;22.10;69.80;;;;;;5133891;28;20490;-76
2023/06/19 01:59:38;;;;;;;4.78;2.90;;;22.00;70.50;;;;;;5115722;28;20115;-76
2023/06/19 02:02:06;;;;;;;4.60;2.72;;;22.00;71.60;;;;;;5115903;28;20028;-76
2023/06/19 02:04:32;;;;;;;4.32;3.00;;;22.00;70.90;;;;;;5099019;28;20027;-76
2023/06/19 02:06:58;;;;;;;5.10;3.17;;;22.00;70.90;;;;;;5115844;28;20043;-76
2023/06/19 02:09:23;;;;;;;5.15;3.42;;;21.90;71.10;;;;;;5133781;28;20079;-76
2023/06/19 02:11:49;;;;;;;5.97;3.65;;;21.90;71.20;;;;;;5133769;28;20023;-76
2023/06/19 02:14:15;;;;;;;5.65;3.50;;;21.90;71.10;;;;;;5098709;28;20028;-76
2023/06/19 02:16:43;;;;;;;5.10;3.30;;;21.90;71.20;;;;;;5115675;28;20034;-76
2023/06/19 02:19:10;;;;;;;5.30;3.70;;;21.80;71.10;;;;;;5120300;28;20031;-76
2023/06/19 02:21:36;;;;;;;4.68;3.13;;;21.80;71.50;;;;;;5137695;28;20028;-76
2023/06/19 02:24:02;;;;;;;6.88;3.33;;;21.80;72.30;;;;;;5119809;28;20378;-76
2023/06/19 02:26:29;;;;;;;5.32;3.30;;;21.70;72.80;;;;;;5119749;28;20020;-76
2023/06/19 02:28:55;;;;;;;4.63;2.80;;;21.70;72.70;;;;;;5119387;28;20012;-76
2023/06/19 02:31:24;;;;;;;4.40;2.78;;;21.70;73.40;;;;;;5137581;28;20028;-76
2023/06/19 02:33:50;;;;;;;4.95;2.97;;;21.50;74.00;;;;;;5137384;28;20038;-76
2023/06/19 02:36:19;;;;;;;4.53;2.97;;;21.50;74.20;;;;;;5119358;28;20031;-76
2023/06/19 02:38:51;;;;;;;5.10;2.97;;;21.40;74.60;;;;;;5119220;28;20039;-76
2023/06/19 02:41:18;;;;;;;5.63;2.90;;;21.40;75.00;;;;;;5102342;28;20122;-76
2023/06/19 02:43:46;;;;;;;5.55;2.88;;;21.30;75.10;;;;;;5119586;28;20073;-76
2023/06/19 02:46:12;;;;;;;4.57;3.13;;;21.30;75.80;;;;;;5137125;28;20046;-76
2023/06/19 02:48:38;;;;;;;4.70;2.83;;;21.20;76.30;;;;;;5119135;28;20091;-76
2023/06/19 02:51:03;;;;;;;4.50;2.42;;;21.20;76.80;;;;;;5119279;28;20031;-76
2023/06/19 02:53:29;;;;;;;5.57;3.03;;;21.20;76.90;;;;;;5119174;28;20497;-76
2023/06/19 02:55:55;;;;;;;4.20;2.75;;;21.20;77.00;;;;;;5137111;28;20020;-76
2023/06/19 02:58:20;;;;;;;4.45;2.47;;;21.20;76.80;;;;;;5137024;28;20038;-75
2023/06/19 03:00:46;;;;;;;5.03;2.60;;;21.20;77.20;;;;;;5136869;28;20032;-76
2023/06/19 03:03:12;;;;;;;3.85;2.28;;;21.10;77.30;;;;;;5118856;28;20049;-76
2023/06/19 03:05:38;;;;;;;5.68;2.70;;;21.20;77.10;;;;;;5136928;28;20027;-76
2023/06/19 03:08:04;;;;;;;4.32;2.50;;;21.10;77.20;;;;;;5118826;28;20062;-75
2023/06/19 03:10:30;;;;;;;4.55;2.72;;;21.20;77.00;;;;;;5136710;28;20024;-76
2023/06/19 03:12:58;;;;;;;3.65;2.33;;;21.20;76.90;;;;;;5118695;28;20028;-76
2023/06/19 03:15:24;;;;;;;3.67;2.35;;;21.20;77.00;;;;;;5136612;28;20028;-75
2023/06/19 03:17:49;;;;;;;4.75;3.05;;;21.20;76.90;;;;;;5118604;28;20045;-75
2023/06/19 03:20:15;;;;;;;4.07;2.35;;;21.10;77.30;;;;;;5118413;28;20037;-75
2023/06/19 03:22:42;;;;;;;4.68;2.55;;;21.20;77.10;;;;;;5136460;28;20383;-75
2023/06/19 03:25:08;;;;;;;4.93;2.67;;;21.10;77.40;;;;;;5101608;28;20028;-75
2023/06/19 03:27:34;;;;;;;5.38;2.95;;;21.10;77.30;;;;;;5101723;28;20031;-75
2023/06/19 03:30:00;;;;;;;3.78;2.80;;;21.10;77.50;;;;;;5117291;28;20044;-75
2023/06/19 03:32:26;;;;;;;6.63;3.33;;;21.10;77.70;;;;;;5118382;28;20433;-75
2023/06/19 03:34:51;;;;;;;5.07;2.97;;;21.00;77.80;;;;;;5118325;28;20031;-75
2023/06/19 03:37:17;;;;;;;9.77;2.90;;;21.00;77.90;;;;;;5136207;28;20076;-75
2023/06/19 03:39:42;;;;;;;4.05;2.97;;;20.90;78.20;;;;;;5118333;28;20024;-75
2023/06/19 03:42:08;;;;;;;4.38;2.85;;;20.90;78.50;;;;;;5136215;28;20034;-75
2023/06/19 03:44:34;;;;;;;6.20;3.20;;;20.80;78.60;;;;;;5136177;28;20027;-75
2023/06/19 03:47:00;;;;;;;5.40;3.22;;;20.70;78.90;;;;;;5118044;28;20044;-75
2023/06/19 03:49:25;;;;;;;4.80;3.05;;;20.70;79.30;;;;;;5101183;28;20030;-75
2023/06/19 03:51:54;;;;;;;4.90;3.10;;;20.60;79.70;;;;;;5118003;28;20055;-75
2023/06/19 03:54:20;;;;;;;6.85;3.33;;;20.50;80.30;;;;;;5135992;28;20012;-75
2023/06/19 03:56:45;;;;;;;5.05;3.28;;;20.50;80.70;;;;;;5100909;28;20012;-75
2023/06/19 03:59:11;;;;;;;4.72;3.55;;;20.40;80.80;;;;;;5117804;28;20424;-75
2023/06/19 04:01:36;;;;;;;6.32;3.97;;;20.30;81.10;;;;;;5117733;28;20035;-76
2023/06/19 04:04:02;;;;;;;5.43;3.30;;;20.30;81.60;;;;;;5135721;28;20024;-76
2023/06/19 04:06:28;;;;;;;5.47;3.38;;;20.30;82.10;;;;;;5117730;28;20030;-76
2023/06/19 04:08:53;;;;;;;7.85;3.17;;;20.20;82.40;;;;;;5117739;28;20016;-76
2023/06/19 04:11:20;;;;;;;5.78;3.40;;;20.20;82.60;;;;;;5117775;28;20070;-76
2023/06/19 04:13:46;;;;;;;5.15;3.42;;;20.40;83.00;;;;;;5117812;28;20043;-75
2023/06/19 04:16:12;;;;;;;6.70;3.63;;;20.50;82.80;;;;;;5117784;28;20111;-76
2023/06/19 04:18:37;;;;;;;6.22;2.90;;;20.50;82.70;;;;;;5135487;28;20030;-75
2023/06/19 04:21:03;;;;;;;5.85;3.47;;;20.50;83.10;;;;;;5116905;28;20126;-76
2023/06/19 04:23:28;;;;;;;4.78;3.25;;;20.50;83.10;;;;;;5100749;28;20024;-75
2023/06/19 04:25:54;;;;;;;5.25;3.45;;;20.50;83.20;;;;;;5135317;28;20035;-76
2023/06/19 04:28:20;;;;;;;6.82;3.10;;;20.60;83.20;;;;;;5117249;28;20020;-75
2023/06/19 04:30:46;;;;;;;5.80;3.60;;;20.60;83.20;;;;;;5135227;28;20517;-75
2023/06/19 04:33:12;;;;;;;4.75;3.28;;;20.60;83.10;;;;;;5135191;28;20034;-76
2023/06/19 04:35:39;;;;;;;6.30;3.40;;;20.70;83.20;;;;;;5135280;28;20047;-75
2023/06/19 04:38:06;;;;;;;6.28;3.90;;;20.70;83.10;;;;;;5117579;28;20020;-75
2023/06/19 04:40:33;;;;;;;5.20;3.13;;;20.80;83.20;;;;;;5134720;28;20031;-75
2023/06/19 04:43:00;;;;;;;5.40;3.50;;;20.80;83.10;;;;;;5117389;28;20035;-75
2023/06/19 04:45:26;;;;;;;5.50;3.60;;;20.80;83.40;;;;;;5134749;28;20039;-75
2023/06/19 04:47:51;;;;;;;5.43;3.65;;;20.80;83.50;;;;;;5134884;28;20028;-75
2023/06/19 04:50:17;;;;;;;5.78;3.75;;;20.80;83.90;;;;;;5134767;28;20083;-75
2023/06/19 04:52:43;;;;;;;6.63;3.47;;;20.70;84.00;;;;;;5116961;28;20114;-75
2023/06/19 04:55:09;;;;;;;4.25;3.42;;;20.80;85.10;;;;;;5116810;28;20028;-76
2023/06/19 04:57:38;;;;;;;5.22;3.47;;;20.80;84.10;;;;;;5134550;28;20024;-75
2023/06/19 05:00:09;;;;;;;5.30;3.28;;;20.80;84.40;;;;;;5116495;28;20114;-73
2023/06/19 05:02:35;;;;;;;5.90;3.73;;;20.80;85.30;;;;;;5134770;28;20027;-74
2023/06/19 05:05:03;;;;;;;5.22;3.20;;;20.70;85.00;;;;;;5116832;28;20019;-73
2023/06/19 05:07:32;;;;;;;4.50;3.25;;;20.70;84.90;;;;;;5100273;28;20028;-74
2023/06/19 05:09:59;;;;;;;5.28;3.75;;;20.70;85.00;;;;;;5099629;28;20160;-74
2023/06/19 05:12:24;;;;;;;6.13;3.47;;;20.70;85.30;;;;;;5134396;28;20024;-75
2023/06/19 05:14:50;;;;;;;5.13;3.50;;;20.70;85.20;;;;;;5134358;28;20054;-74
2023/06/19 05:17:16;;;;;;;5.97;3.80;;;20.80;84.90;;;;;;5134374;28;20050;-74
2023/06/19 05:19:41;;;;;;;7.38;3.88;;;20.80;84.70;;;;;;5116364;28;20027;-74
2023/06/19 05:22:07;;;;;;;6.30;3.58;;;20.80;85.00;;;;;;5116348;28;20530;-75
2023/06/19 05:24:33;;;;;;;5.18;3.50;;;20.80;85.30;;;;;;5116338;28;20026;-75
2023/06/19 05:26:59;;;;;;;4.30;3.47;;;20.80;85.30;;;;;;5116462;28;20115;-75
2023/06/19 05:29:25;;;;;;;8.13;3.92;;;20.80;85.80;;;;;;5116127;28;20031;-75
2023/06/19 05:31:51;;;;;;;6.53;3.80;;;20.80;85.50;;;;;;5134173;28;20042;-75
2023/06/19 05:34:17;;;;;;;7.03;3.97;;;20.80;85.40;;;;;;5115928;28;20020;-75
2023/06/19 05:36:44;;;;;;;8.20;4.13;;;20.80;86.00;;;;;;5099233;28;20023;-75
2023/06/19 05:39:10;;;;;;;6.85;3.88;;;20.80;85.60;;;;;;5115870;28;20028;-75
2023/06/19 05:41:36;;;;;;;5.60;3.88;;;20.90;85.60;;;;;;5116105;28;20035;-76
2023/06/19 05:44:01;;;;;;;7.95;3.88;;;20.90;85.50;;;;;;5116107;28;20081;-74
2023/06/19 05:46:27;;;;;;;7.65;4.72;;;20.80;85.90;;;;;;5133770;28;20036;-75
2023/06/19 05:48:54;;;;;;;9.52;4.00;;;20.90;86.00;;;;;;5116078;28;20116;-75
2023/06/19 05:51:20;;;;;;;5.93;4.28;;;20.90;85.90;;;;;;5099351;28;20024;-74
2023/06/19 05:53:46;;;;;;;5.55;3.85;;;21.00;86.10;;;;;;5133537;28;20057;-74
2023/06/19 05:56:12;;;;;;;6.32;4.10;;;20.90;86.10;;;;;;5134059;28;20038;-74
2023/06/19 05:58:39;;;;;;;5.35;4.10;;;20.90;85.90;;;;;;5098868;28;20035;-75
2023/06/19 06:01:04;;;;;;;10.75;4.95;;;20.90;86.10;;;;;;5133789;28;20024;-75
2023/06/19 06:03:30;;;;;;;6.28;4.68;;;21.00;85.80;;;;;;5133724;28;20045;-76
2023/06/19 06:06:02;;;;;;;6.55;4.18;;;20.90;85.70;;;;;;5115817;28;20091;-76
2023/06/19 06:08:31;;;;;;;7.30;4.55;;;20.90;86.30;;;;;;5115806;28;20019;-76
2023/06/19 06:10:57;;;;;;;7.30;4.10;;;20.90;86.10;;;;;;5133783;28;20095;-77
2023/06/19 06:13:23;;;;;;;9.60;4.68;;;20.90;85.90;;;;;;5133730;28;20023;-74
2023/06/19 06:15:50;;;;;;;7.75;4.70;;;20.90;86.30;;;;;;5133651;28;20054;-75
2023/06/19 06:18:16;;;;;;;8.35;4.60;;;20.90;86.30;;;;;;5133692;28;20028;-75
2023/06/19 06:20:41;;;;;;;9.00;4.53;;;20.90;87.10;;;;;;5133733;28;20042;-74
2023/06/19 06:23:07;;;;;;;7.13;4.70;;;21.00;86.30;;;;;;5133524;28;20028;-74
2023/06/19 06:25:33;;;;;;;7.95;4.53;;;21.10;86.40;;;;;;5115546;28;20024;-75
2023/06/19 06:27:59;;;;;;;7.90;4.75;;;21.10;86.30;;;;;;5098749;28;20031;-76
2023/06/19 06:30:24;;;;;;;8.05;4.68;;;21.20;86.00;;;;;;5115739;28;20096;-75
2023/06/19 06:32:51;;;;;;;8.10;4.72;;;21.20;86.00;;;;;;5133544;28;20035;-76
2023/06/19 06:35:16;;;;;;;8.65;4.70;;;21.20;86.00;;;;;;5115702;28;20026;-75
2023/06/19 06:37:43;;;;;;;7.32;4.80;;;21.20;86.00;;;;;;5115604;28;20060;-75
2023/06/19 06:40:09;;;;;;;10.18;5.30;;;21.30;85.90;;;;;;5115680;28;20043;-79
2023/06/19 06:42:35;;;;;;;6.93;4.63;;;21.40;84.90;;;;;;5133448;28;20467;-76
2023/06/19 06:45:01;;;;;;;8.90;4.38;;;21.30;84.90;;;;;;5115346;28;20034;-77
2023/06/19 06:47:26;;;;;;;8.90;4.82;;;21.30;85.00;;;;;;5115534;28;20027;-75
2023/06/19 06:49:52;;;;;;;7.63;4.85;;;21.30;85.10;;;;;;5133362;28;20031;-82
2023/06/19 06:52:18;;;;;;;8.13;5.20;;;21.20;84.90;;;;;;5133588;28;20059;-76
2023/06/19 06:54:43;;;;;;;7.57;5.28;;;21.30;84.50;;;;;;5115404;28;20046;-76
2023/06/19 06:57:09;;;;;;;7.82;5.03;;;21.30;84.00;;;;;;5115536;28;20023;-76
2023/06/19 06:59:35;;;;;;;7.80;5.40;;;21.30;83.50;;;;;;5114996;28;20030;-76
2023/06/19 07:02:00;;;;;;;6.78;5.30;;;21.30;83.20;;;;;;5133339;28;20073;-76
2023/06/19 07:04:26;;;;;;;6.28;4.65;;;21.50;84.00;;;;;;5135741;28;20024;-76
2023/06/19 07:06:52;;;;;;;8.00;5.47;;;21.50;83.30;;;;;;5136933;28;20027;-77
2023/06/19 07:09:18;;;;;;;6.80;4.55;;;21.60;83.70;;;;;;5101726;28;20019;-77
2023/06/19 07:11:43;;;;;;;7.95;5.47;;;21.60;83.10;;;;;;5136765;28;20061;-76
2023/06/19 07:14:09;;;;;;;7.40;4.75;;;21.80;83.50;;;;;;5118597;28;20032;-75
2023/06/19 07:16:35;;;;;;;7.50;5.68;;;21.90;83.00;;;;;;5136872;28;20028;-77
2023/06/19 07:19:00;;;;;;;7.93;5.63;;;21.90;80.60;;;;;;5084904;28;20035;-77
2023/06/19 07:21:28;;;;;;;7.63;5.45;;;21.80;80.70;;;;;;5118632;28;20020;-77
2023/06/19 07:23:54;;;;;;;9.10;5.95;;;21.80;81.00;;;;;;5136600;28;20538;-76
2023/06/19 07:26:19;;;;;;;10.25;6.25;;;21.80;80.00;;;;;;5118806;28;20079;-79
2023/06/19 07:28:45;;;;;;;10.45;7.18;;;21.90;79.60;;;;;;5136468;28;20028;-76
2023/06/19 07:31:10;;;;;;;9.35;6.88;;;21.80;78.70;;;;;;5118411;28;20023;-76
2023/06/19 07:33:36;;;;;;;12.50;7.10;;;21.80;78.30;;;;;;5084691;28;20038;-76
2023/06/19 07:36:04;;;;;;;11.25;7.38;;;21.80;79.60;;;;;;5101380;28;20024;-75
2023/06/19 07:38:30;;;;;;;11.30;8.02;;;21.80;78.40;;;;;;5118365;28;20043;-75
2023/06/19 07:40:56;;;;;;;11.90;8.05;;;21.80;77.40;;;;;;5118217;28;20031;-75
2023/06/19 07:43:24;;;;;;;12.00;7.95;;;21.70;77.90;;;;;;5084549;28;20049;-75
2023/06/19 07:45:50;;;;;;;11.05;7.90;;;21.70;78.40;;;;;;5117749;28;20108;-76
2023/06/19 07:48:16;;;;;;;11.55;8.60;;;21.80;77.80;;;;;;5136149;28;20032;-75
2023/06/19 07:50:42;;;;;;;12.10;9.32;;;21.90;77.50;;;;;;5117989;28;20036;-75
2023/06/19 07:53:07;;;;;;;10.82;8.27;;;21.90;77.90;;;;;;5135940;28;20053;-75
2023/06/19 07:55:35;;;;;;;12.60;9.15;;;21.90;77.30;;;;;;5100913;28;20027;-75
2023/06/19 07:58:01;;;;;;;18.13;8.55;;;22.00;76.90;;;;;;5117765;28;20027;-76
2023/06/19 08:00:26;;;;;;;14.07;9.00;;;22.20;77.80;;;;;;5117792;28;20020;-75
2023/06/19 08:02:52;;;;;;;12.38;8.90;;;22.20;76.60;;;;;;5135816;28;20042;-76
2023/06/19 08:05:18;;;;;;;11.50;8.80;;;22.30;76.00;;;;;;5100870;28;20032;-76
2023/06/19 08:07:43;;;;;;;11.98;9.15;;;22.40;75.50;;;;;;5117661;28;20015;-75
2023/06/19 08:10:09;;;;;;;13.52;8.75;;;22.40;75.50;;;;;;5100652;28;20108;-76
2023/06/19 08:12:35;;;;;;;12.85;9.30;;;22.50;75.60;;;;;;5135501;28;20035;-75
2023/06/19 08:15:00;;;;;;;10.60;8.50;;;22.50;73.40;;;;;;5116855;28;20041;-75
2023/06/19 08:17:26;;;;;;;11.82;8.50;;;22.50;74.00;;;;;;5135536;28;20024;-75
2023/06/19 08:19:51;;;;;;;10.55;8.73;;;22.50;73.70;;;;;;5100494;28;20540;-76
2023/06/19 08:22:17;;;;;;;11.95;9.25;;;22.40;73.80;;;;;;5100451;28;20031;-75
2023/06/19 08:24:43;;;;;;;12.05;8.05;;;22.50;74.80;;;;;;5117334;28;20024;-75
2023/06/19 08:27:08;;;;;;;14.25;9.60;;;22.60;74.90;;;;;;5100163;28;20077;-75
2023/06/19 08:29:34;;;;;;;13.75;9.45;;;22.80;75.50;;;;;;5117318;28;20032;-75
2023/06/19 08:31:59;;;;;;;13.77;9.73;;;22.80;73.80;;;;;;5135448;28;20030;-75
2023/06/19 08:34:25;;;;;;;14.10;9.82;;;22.80;73.60;;;;;;5117201;28;20045;-75
2023/06/19 08:36:51;;;;;;;14.90;9.63;;;22.80;73.00;;;;;;5135198;28;20049;-75
2023/06/19 08:39:17;;;;;;;12.55;9.10;;;22.90;73.70;;;;;;5135179;28;20031;-75
2023/06/19 08:41:43;;;;;;;13.32;9.63;;;22.90;72.80;;;;;;5135034;28;20023;-75
2023/06/19 08:44:09;;;;;;;12.25;9.38;;;22.90;72.50;;;;;;5135201;28;20087;-75
2023/06/19 08:46:37;;;;;;;14.88;10.05;;;23.00;72.80;;;;;;5099892;28;20079;-75
2023/06/19 08:49:03;;;;;;;12.45;9.70;;;23.10;71.80;;;;;;5134888;28;20429;-75
2023/06/19 08:51:30;;;;;;;12.50;9.48;;;23.00;71.80;;;;;;5116925;28;20027;-75
2023/06/19 08:54:00;;;;;;;12.50;9.20;;;23.10;71.80;;;;;;5134774;28;20043;-75
2023/06/19 08:56:25;;;;;;;12.38;9.10;;;23.00;71.80;;;;;;5134707;28;20065;-74
2023/06/19 08:58:51;;;;;;;12.77;9.55;;;23.00;72.40;;;;;;5116905;28;20016;-74
2023/06/19 09:01:19;;;;;;;10.45;7.95;;;23.10;72.50;;;;;;5116636;28;20448;-75
2023/06/19 09:03:46;;;;;;;12.05;9.00;;;23.00;71.60;;;;;;5116662;28;20019;-75
2023/06/19 09:06:15;;;;;;;10.65;8.30;;;23.00;71.30;;;;;;5134619;28;20045;-74
2023/06/19 09:08:41;;;;;;;12.75;8.80;;;23.10;71.80;;;;;;5134637;28;20016;-75
2023/06/19 09:11:07;;;;;;;11.95;8.35;;;23.20;70.50;;;;;;5134544;28;20028;-75
2023/06/19 09:13:33;;;;;;;13.82;9.15;;;23.10;71.00;;;;;;5116587;28;20114;-75
2023/06/19 09:15:59;;;;;;;10.88;7.85;;;23.20;71.20;;;;;;5099677;28;20464;-75
2023/06/19 09:18:25;;;;;;;10.35;7.85;;;23.20;71.30;;;;;;5134383;28;20030;-74
2023/06/19 09:20:54;;;;;;;12.07;7.22;;;23.20;71.30;;;;;;5134381;28;20028;-75
2023/06/19 09:23:20;;;;;;;11.07;7.47;;;23.30;71.80;;;;;;5134362;28;20019;-74
2023/06/19 09:25:50;;;;;;;12.50;8.15;;;23.40;70.90;;;;;;5134334;28;20049;-75
2023/06/19 09:28:23;;;;;;;10.85;7.47;;;23.50;69.40;;;;;;5133414;28;20027;-75
2023/06/19 09:31:07;;;;;;;10.52;7.75;;;23.50;69.90;;;;;;5134385;28;20043;-75
2023/06/19 09:33:34;;;;;;;14.32;8.27;;;23.60;72.80;;;;;;5115972;28;20028;-75
2023/06/19 09:36:03;;;;;;;13.32;8.13;;;23.70;70.70;;;;;;5134205;28;20049;-75
2023/06/19 09:38:33;;;;;;;8.85;6.50;;;23.80;70.30;;;;;;5134134;28;20024;-75
2023/06/19 09:41:01;;;;;;;9.52;6.55;;;23.90;71.00;;;;;;5134039;28;20024;-75
2023/06/19 09:43:43;;;;;;;9.45;6.82;;;23.90;68.30;;;;;;5134109;28;20019;-76
2023/06/19 09:46:10;;;;;;;9.65;6.80;;;24.00;69.30;;;;;;5115728;28;20054;-75
2023/06/19 09:48:46;;;;;;;10.23;7.47;;;24.10;70.20;;;;;;5133971;28;20020;-75
2023/06/19 09:51:30;;;;;;;11.60;6.55;;;24.10;69.60;;;;;;5134003;28;20022;-75
2023/06/19 09:53:58;;;;;;;9.02;6.70;;;24.10;66.00;;;;;;5134038;28;20031;-74
2023/06/19 09:56:25;;;;;;;10.45;7.57;;;24.00;67.30;;;;;;5133772;28;20087;-75
2023/06/19 09:58:54;;;;;;;9.15;6.80;;;24.20;66.80;;;;;;5133901;28;20024;-75
2023/06/19 10:01:20;;;;;;;9.50;6.55;;;24.20;66.40;;;;;;5133781;28;20039;-74
2023/06/19 10:03:46;;;;;;;9.65;6.10;;;24.30;67.70;;;;;;5116088;28;20024;-75
2023/06/19 10:06:16;;;;;;;10.15;7.35;;;24.30;66.90;;;;;;5099131;28;20109;-75
2023/06/19 10:08:43;;;;;;;8.30;6.20;;;24.40;64.90;;;;;;5133765;28;20084;-75
2023/06/19 10:11:10;;;;;;;9.85;7.07;;;24.40;65.20;;;;;;5133606;28;20034;-75
2023/06/19 10:13:41;;;;;;;9.80;6.82;;;24.50;65.20;;;;;;5133764;28;20083;-75
2023/06/19 10:16:08;;;;;;;11.82;7.20;;;24.50;65.10;;;;;;5133758;28;20016;-75
2023/06/19 10:18:46;;;;;;;11.75;7.60;;;24.50;66.70;;;;;;5115619;28;20028;-75
2023/06/19 10:21:19;;;;;;;10.65;7.20;;;24.30;66.80;;;;;;5133655;28;20023;-75
2023/06/19 10:23:57;;;;;;;9.65;6.72;;;24.30;65.10;;;;;;5133664;28;20035;-75
2023/06/19 10:26:33;;;;;;;7.32;6.22;;;24.40;65.00;;;;;;5133606;28;20019;-75
2023/06/19 10:28:59;;;;;;;11.15;7.07;;;24.50;67.20;;;;;;5133427;28;20027;-75
2023/06/19 10:31:25;;;;;;;13.05;7.03;;;24.60;66.30;;;;;;5115537;28;20162;-74
2023/06/19 10:33:50;;;;;;;10.50;7.22;;;24.60;65.00;;;;;;5133412;28;20027;-74
2023/06/19 10:36:18;;;;;;;10.45;6.80;;;24.60;66.30;;;;;;5133556;28;20032;-75
2023/06/19 10:38:46;;;;;;;11.90;7.38;;;24.70;65.00;;;;;;5117155;28;20034;-75
2023/06/19 10:41:16;;;;;;;8.88;6.60;;;24.70;65.20;;;;;;5137212;28;20035;-74
2023/06/19 10:43:52;;;;;;;9.98;6.57;;;24.70;64.60;;;;;;5137361;28;20031;-74
2023/06/19 10:46:17;;;;;;;9.15;6.70;;;24.70;63.30;;;;;;5137040;28;20054;-74
2023/06/19 10:48:43;;;;;;;12.48;7.30;;;24.70;63.60;;;;;;5119372;28;20023;-75
2023/06/19 10:51:09;;;;;;;11.18;7.30;;;24.60;64.00;;;;;;5137253;28;20087;-74
2023/06/19 10:53:34;;;;;;;10.73;7.85;;;24.70;64.40;;;;;;5119044;28;20031;-76
2023/06/19 10:56:01;;;;;;;10.43;6.75;;;24.90;64.90;;;;;;5102305;28;20027;-75
2023/06/19 10:58:28;;;;;;;9.32;6.35;;;24.90;63.70;;;;;;5137158;28;20019;-75
2023/06/19 11:00:54;;;;;;;9.48;5.88;;;24.90;63.50;;;;;;5137028;28;20024;-75
2023/06/19 11:03:20;;;;;;;7.78;5.40;;;24.90;62.70;;;;;;5136885;28;20035;-75
2023/06/19 11:05:47;;;;;;;9.18;6.30;;;24.90;61.80;;;;;;5118913;28;20019;-75
2023/06/19 11:08:22;;;;;;;10.57;7.35;;;25.00;61.40;;;;;;5136972;28;20383;-75
2023/06/19 11:10:49;;;;;;;10.48;7.35;;;25.20;61.00;;;;;;5118745;28;20102;-76
2023/06/19 11:13:17;;;;;;;11.15;7.35;;;25.30;61.10;;;;;;5118921;28;20039;-75
2023/06/19 11:15:43;;;;;;;7.88;6.40;;;25.40;61.70;;;;;;5118583;28;20114;-75
2023/06/19 11:18:09;;;;;;;9.10;7.47;;;25.20;60.60;;;;;;5118638;28;20035;-75
2023/06/19 11:20:52;;;;;;;10.05;7.13;;;25.30;60.30;;;;;;5118488;28;20036;-76
2023/06/19 11:23:29;;;;;;;9.35;6.60;;;25.40;60.00;;;;;;5136709;28;20020;-75
2023/06/19 11:26:01;;;;;;;8.65;6.60;;;25.50;59.50;;;;;;5136633;28;20027;-76
2023/06/19 11:28:29;;;;;;;10.50;6.25;;;25.50;60.30;;;;;;5136585;28;20022;-75
2023/06/19 11:31:02;;;;;;;9.15;6.45;;;25.40;58.70;;;;;;5136501;28;20083;-75
2023/06/19 11:33:29;;;;;;;9.60;7.35;;;25.40;60.70;;;;;;5136347;28;20028;-75
2023/06/19 11:35:59;;;;;;;10.93;6.93;;;25.30;60.20;;;;;;5118379;28;20027;-75
2023/06/19 11:38:26;;;;;;;9.05;6.57;;;25.50;59.50;;;;;;5136267;28;20083;-75
2023/06/19 11:40:52;;;;;;;10.00;6.00;;;25.50;57.20;;;;;;5136234;28;20028;-75
2023/06/19 11:43:31;;;;;;;7.88;5.15;;;25.60;56.00;;;;;;5118483;28;20098;-75
2023/06/19 11:46:05;;;;;;;9.98;6.72;;;25.80;54.50;;;;;;5136027;28;20051;-76
2023/06/19 11:48:31;;;;;;;9.25;6.45;;;25.80;55.80;;;;;;5118088;28;20011;-76
2023/06/19 11:50:57;;;;;;;9.95;6.50;;;25.80;57.20;;;;;;5116991;28;20027;-75
2023/06/19 11:53:24;;;;;;;10.18;6.75;;;26.00;56.50;;;;;;5136024;28;20035;-75
2023/06/19 11:55:51;;;;;;;8.75;5.97;;;26.20;54.90;;;;;;5135917;28;20057;-75
2023/06/19 11:58:18;;;;;;;7.28;5.72;;;26.10;54.70;;;;;;5135944;28;20114;-75
2023/06/19 12:00:43;;;;;;;7.93;5.25;;;26.10;56.60;;;;;;5135798;28;20053;-75
2023/06/19 12:03:09;;;;;;;10.00;6.82;;;26.20;56.50;;;;;;5117788;28;20118;-75
2023/06/19 12:05:36;;;;;;;8.30;6.15;;;26.20;52.40;;;;;;5135793;28;20035;-75
2023/06/19 12:08:02;;;;;;;7.53;5.32;;;26.00;55.30;;;;;;5135748;28;20019;-75
2023/06/19 12:10:28;;;;;;;8.43;5.38;;;26.10;56.80;;;;;;5117551;28;20087;-76
2023/06/19 12:12:54;;;;;;;10.23;5.47;;;26.30;57.30;;;;;;5135641;28;20053;-76
2023/06/19 12:15:20;;;;;;;7.90;5.57;;;26.40;50.90;;;;;;5135485;28;20039;-75
2023/06/19 12:17:46;;;;;;;7.72;5.75;;;26.20;51.30;;;;;;5117525;28;20061;-76
2023/06/19 12:20:13;;;;;;;8.05;5.03;;;26.30;54.00;;;;;;5117454;28;20031;-75
2023/06/19 12:22:39;;;;;;;6.95;4.93;;;26.30;53.60;;;;;;5135427;28;20035;-75
2023/06/19 12:25:05;;;;;;;7.57;5.05;;;26.30;50.70;;;;;;5135379;28;20030;-75
2023/06/19 12:27:31;;;;;;;7.80;4.53;;;26.30;51.60;;;;;;5135320;28;20016;-75
2023/06/19 12:29:57;;;;;;;8.50;5.10;;;26.30;51.20;;;;;;5135252;28;20535;-75
2023/06/19 12:32:22;;;;;;;7.35;5.15;;;26.30;52.30;;;;;;5135268;28;20027;-75
2023/06/19 12:34:48;;;;;;;7.03;5.40;;;26.40;53.00;;;;;;5135134;28;20019;-75
2023/06/19 12:37:17;;;;;;;10.15;5.43;;;26.50;52.30;;;;;;5135102;28;20078;-75
2023/06/19 12:39:43;;;;;;;7.63;4.95;;;26.60;52.60;;;;;;5135024;28;20012;-76
2023/06/19 12:42:12;;;;;;;9.20;5.15;;;26.60;53.90;;;;;;5135077;28;20028;-75